Home   Weather   Milan Chok   Past weeks
Flag for Nepal

Past Weather in Milan Chok, Nepal — Yesterday and Last 2 Weeks

Currently: 59 °F. Fog. (Weather station: Kathmandu Airport, Nepal). See more current weather

Past Weather in Milan Chok — Graph

°F

Milan Chok Temperature Yesterday

Maximum temperature yesterday: 72 °F (at 1:15 pm)
Minimum temperature yesterday: 50 °F (at 2:45 am)
Average temperature yesterday: 58 °F

High & Low Weather Summary for the Past Weeks

 TemperatureHumidityPressure
High75 °F (Nov 25, 2:15 pm)100% (Nov 17, 7:15 am)30.24 "Hg (Nov 17, 7:15 am)
Low48 °F (Nov 21, 4:15 am)33% (Nov 26, 1:45 pm)29.95 "Hg (Nov 27, 1:45 pm)
Average59 °F73%30.08 "Hg
* Reported Nov 14 8:45 am — Nov 29 8:45 am, Milan Chok. Weather by CustomWeather, © 2022

Note: Actual official high and low records may vary slightly from our data, if they occured in-between our weather recording intervals... More about our weather records

Milan Chok Weather History for the Previous 24 Hours

Scroll right to see more
 ConditionsComfort  
Time TempWeatherWind HumidityBarometerVisibility
8:45 am
Tue, Nov 29
55 °FFog.No wind82%30.15 "Hg1 mi
8:15 am52 °FFog.3 mph94%30.15 "Hg1 mi
7:45 am52 °FFog.2 mph94%30.15 "Hg1 mi
7:15 am48 °FFog.2 mph100%30.15 "Hg1 mi
6:45 am50 °FFog.2 mph94%30.12 "Hg1 mi
5:15 am50 °FPassing clouds.3 mph94%30.09 "Hg4 mi
4:45 am50 °FPassing clouds.2 mph94%30.09 "Hg4 mi
3:45 am50 °FPassing clouds.3 mph94%30.09 "Hg4 mi
2:45 am52 °FPassing clouds.2 mph88%30.09 "Hg4 mi
2:15 am52 °FPassing clouds.2 mph88%30.12 "Hg4 mi
1:45 am52 °FPassing clouds.2 mph88%30.12 "Hg4 mi
1:15 am52 °FPassing clouds.2 mph94%30.12 "Hg4 mi
12:45 am54 °FPassing clouds.2 mph88%30.12 "Hg4 mi
12:15 am52 °FPassing clouds.3 mph94%30.12 "Hg4 mi
11:15 pm
Mon, Nov 28
54 °FPassing clouds.2 mph82%30.12 "Hg4 mi
10:45 pm54 °FPassing clouds.3 mph82%30.12 "Hg4 mi
10:15 pm54 °FPassing clouds.3 mph77%30.12 "Hg4 mi
9:45 pm54 °FPassing clouds.2 mph82%30.09 "Hg4 mi
9:15 pm55 °FPassing clouds.3 mph82%30.09 "Hg4 mi
8:45 pm55 °FPassing clouds.5 mph82%30.09 "Hg4 mi
8:15 pm57 °FPassing clouds.3 mph94%30.07 "Hg4 mi
7:45 pm59 °FPassing clouds.5 mph82%30.07 "Hg4 mi
7:15 pm59 °FPassing clouds.5 mph82%30.07 "Hg4 mi
6:45 pm59 °FPassing clouds.5 mph77%30.07 "Hg4 mi
6:15 pm61 °FPassing clouds.6 mph72%30.04 "Hg4 mi
5:45 pm61 °FPassing clouds.6 mph72%30.04 "Hg4 mi
5:15 pm63 °FPassing clouds.5 mph68%30.04 "Hg4 mi
4:45 pm63 °FPassing clouds.7 mph68%30.04 "Hg5 mi
4:15 pm64 °FPassing clouds.7 mph56%30.01 "Hg5 mi
3:45 pm68 °FPassing clouds.8 mph43%30.01 "Hg5 mi
3:15 pm68 °FPassing clouds.8 mph43%30.01 "Hg5 mi
2:15 pm70 °FPassing clouds.6 mph38%30.04 "Hg5 mi
1:45 pm70 °FPassing clouds.6 mph46%30.04 "Hg4 mi
1:15 pm72 °FPassing clouds.2 mph41%30.04 "Hg4 mi
12:45 pm70 °FPassing clouds.5 mph35%30.04 "Hg4 mi
12:15 pm70 °FMild.N/A46%30.07 "HgN/A
11:45 am66 °FMild.N/A56%30.09 "HgN/A
11:15 am64 °FPassing clouds.3 mph64%30.09 "Hg4 mi
10:45 am63 °FPassing clouds.2 mph68%30.12 "Hg4 mi
10:15 am61 °FFog.2 mph72%30.12 "Hg3 mi
Weather by CustomWeather, © 2022

See weather overview